Time;durP1;ratioP1;P1;durP2;ratioP2;P2;SDS_P1;SDS_P2;PMS_P1;PMS_P2;Temp;Humidity;BMP_temperature;BMP_pressure;BME280_temperature;BME280_humidity;BME280_pressure;Samples;Min_cycle;Max_cycle;Signal;HPM_P1;HPM_P2
2023/05/03 00:01:01;;;;;;;0.88;0.88;;;;;;;33.51;27.26;101002.78;7395644;19;20010;-61
2023/05/03 00:03:27;;;;;;;2.60;1.08;;;;;;;33.49;27.38;101005.47;7395057;19;20028;-61
2023/05/03 00:05:54;;;;;;;0.80;0.80;;;;;;;33.73;27.54;101006.53;7396374;19;20011;-61
2023/05/03 00:08:20;;;;;;;6.15;1.17;;;;;;;33.97;26.89;101008.28;7396471;19;20011;-61
2023/05/03 00:10:46;;;;;;;5.80;1.15;;;;;;;34.13;26.78;100998.66;7396269;19;20026;-61
2023/05/03 00:13:13;;;;;;;2.42;1.55;;;;;;;34.24;27.11;101008.84;7395867;19;20459;-61
2023/05/03 00:15:39;;;;;;;7.20;1.33;;;;;;;34.53;26.89;101006.56;7395047;19;20465;-61
2023/05/03 00:18:06;;;;;;;0.93;0.52;;;;;;;34.50;26.92;101001.25;7395984;19;20018;-61
2023/05/03 00:20:32;;;;;;;2.05;1.35;;;;;;;34.72;26.90;101012.25;7400694;19;20028;-61
2023/05/03 00:22:58;;;;;;;6.53;1.63;;;;;;;34.74;26.35;101009.47;7395650;19;20011;-61
2023/05/03 00:25:24;;;;;;;5.25;1.40;;;;;;;34.72;26.70;100999.91;7400544;19;20078;-61
2023/05/03 00:27:50;;;;;;;0.90;0.90;;;;;;;34.79;26.71;101005.50;7396005;19;20018;-61
2023/05/03 00:30:18;;;;;;;0.93;0.77;;;;;;;34.79;26.56;101005.50;7400579;19;20023;-60
2023/05/03 00:32:44;;;;;;;2.60;0.77;;;;;;;34.72;26.53;100997.75;7394356;19;20027;-61
2023/05/03 00:35:10;;;;;;;4.45;1.23;;;;;;;34.61;26.80;100989.75;7394400;19;20010;-61
2023/05/03 00:37:36;;;;;;;1.33;1.08;;;;;;;34.50;26.80;100990.44;7393205;19;20093;-61
2023/05/03 00:40:03;;;;;;;1.80;1.42;;;;;;;34.25;26.85;100990.88;7398907;19;20010;-60
2023/05/03 00:42:33;;;;;;;2.30;1.55;;;;;;;34.18;26.93;100991.81;7394050;19;20018;-61
2023/05/03 00:44:59;;;;;;;2.00;1.10;;;;;;;33.45;27.40;100990.75;7393858;19;20427;-61
2023/05/03 00:47:26;;;;;;;1.45;1.35;;;;;;;34.27;26.92;100984.44;7394720;19;20013;-61
2023/05/03 00:49:52;;;;;;;2.90;1.70;;;;;;;23.04;37.61;101011.25;7397618;19;20014;-60
2023/05/03 00:52:18;;;;;;;5.50;1.33;;;;;;;16.84;75.47;101016.81;7394988;19;20006;-61
2023/05/03 00:54:44;;;;;;;1.05;0.98;;;;;;;18.14;70.33;101008.81;7395821;19;20454;-61
2023/05/03 00:57:11;;;;;;;5.05;1.75;;;;;;;15.15;100.00;101023.28;7392458;19;20017;-61
2023/05/03 00:59:37;;;;;;;3.15;1.85;;;;;;;30.25;41.83;100984.94;7395726;19;20504;-61
2023/05/03 01:02:04;;;;;;;2.15;1.08;;;;;;;32.12;35.74;100978.38;7393126;19;20023;-61
2023/05/03 01:04:30;;;;;;;2.00;1.10;;;;;;;32.92;33.51;100976.63;7393254;19;20014;-61
2023/05/03 01:07:30;;;;;;;2.00;1.05;;;;;;;33.39;32.34;100972.97;7393839;19;20446;-61
2023/05/03 01:10:36;;;;;;;0.95;0.75;;;;;;;14.21;100.00;101010.66;7396435;19;20014;-62
2023/05/03 01:13:02;;;;;;;2.78;1.08;;;;;;;11.83;100.00;101008.47;7392565;19;20015;-61
2023/05/03 01:15:50;;;;;;;2.13;1.02;;;;;;;11.80;100.00;101001.78;7391809;19;20007;-61
2023/05/03 01:18:26;;;;;;;6.18;0.75;;;;;;;12.92;100.00;101001.28;7394725;19;20009;-61
2023/05/03 01:20:52;;;;;;;3.70;0.75;;;;;;;13.84;100.00;100998.00;7392344;19;20026;-61
2023/05/03 01:23:54;;;;;;;5.00;1.75;;;;;;;13.60;100.00;100988.72;7394261;19;20006;-61
2023/05/03 01:26:23;;;;;;;3.20;1.25;;;;;;;13.21;100.00;100979.25;7392051;19;20371;-61
2023/05/03 01:28:49;;;;;;;2.92;1.35;;;;;;;12.87;100.00;100973.94;7395221;19;20078;-61
2023/05/03 01:32:04;;;;;;;5.03;1.10;;;;;;;13.52;100.00;100960.28;7392214;19;20026;-61
2023/05/03 01:34:49;;;;;;;9.15;1.13;;;;;;;14.13;100.00;100956.22;7391538;19;20031;-61
2023/05/03 01:37:17;;;;;;;4.00;0.57;;;;;;;12.21;100.00;100952.38;7391627;19;20027;-61
2023/05/03 01:39:50;;;;;;;1.40;1.02;;;;;;;26.08;53.65;100928.72;7396018;19;20021;-61
2023/05/03 01:42:16;;;;;;;1.25;0.52;;;;;;;31.19;41.66;100918.22;7391203;19;20637;-59
2023/05/03 01:44:44;;;;;;;2.10;1.67;;;;;;;32.02;38.11;100931.47;7393411;19;20124;-61
2023/05/03 01:47:13;;;;;;;1.08;0.40;;;;;;;32.10;37.10;100931.31;7391806;19;20025;-61
2023/05/03 01:49:40;;;;;;;1.83;1.33;;;;;;;33.19;34.08;100940.47;7396743;19;20425;-61
2023/05/03 01:52:06;;;;;;;1.13;1.02;;;;;;;32.92;34.02;100936.94;7391079;19;20348;-61
2023/05/03 01:54:32;;;;;;;5.22;1.42;;;;;;;33.87;32.02;100936.06;7393382;19;20007;-61
2023/05/03 01:56:58;;;;;;;6.95;1.52;;;;;;;33.67;31.19;100922.28;7392866;19;20014;-61
2023/05/03 01:59:24;;;;;;;3.10;1.55;;;;;;;22.08;45.65;100936.06;7401477;19;20170;-61
2023/05/03 02:01:50;;;;;;;3.83;2.25;;;;;;;32.58;32.94;100922.81;7399163;19;20030;-61
2023/05/03 02:04:17;;;;;;;1.48;1.35;;;;;;;27.35;35.02;100920.72;7400014;19;20007;-61
2023/05/03 02:06:43;;;;;;;6.25;1.50;;;;;;;29.91;37.26;100914.50;7399918;19;20010;-61
2023/05/03 02:09:09;;;;;;;1.60;1.08;;;;;;;32.38;32.50;100913.34;7400193;19;20012;-61
2023/05/03 02:11:35;;;;;;;11.90;1.15;;;;;;;32.59;31.50;100916.44;7398524;19;20015;-62
2023/05/03 02:14:01;;;;;;;2.58;1.33;;;;;;;31.12;33.65;100924.81;7398004;19;20022;-61
2023/05/03 02:16:28;;;;;;;1.58;1.05;;;;;;;16.43;64.99;100954.06;7397254;19;20014;-61
2023/05/03 02:18:58;;;;;;;1.10;0.73;;;;;;;15.57;100.00;100961.34;7399612;19;20014;-61
2023/05/03 02:21:27;;;;;;;3.20;1.92;;;;;;;26.88;52.42;100944.72;7398145;19;20038;-61
2023/05/03 02:23:53;;;;;;;3.67;0.93;;;;;;;25.41;58.11;100949.50;7398626;19;20028;-61
2023/05/03 02:26:21;;;;;;;3.60;1.95;;;;;;;26.67;48.76;100958.31;7396733;19;20006;-61
2023/05/03 02:28:47;;;;;;;1.10;0.70;;;;;;;30.78;37.57;100942.09;7400762;19;20347;-61
2023/05/03 02:31:13;;;;;;;3.45;0.90;;;;;;;31.65;34.70;100943.53;7399020;19;20366;-61
2023/05/03 02:33:41;;;;;;;0.70;0.70;;;;;;;32.16;33.32;100943.34;7397656;19;20011;-61
2023/05/03 02:36:08;;;;;;;6.70;2.20;;;;;;;32.53;32.51;100947.69;7396860;19;20022;-61
2023/05/03 02:38:35;;;;;;;1.25;0.82;;;;;;;27.34;35.23;100954.28;7399212;19;20022;-61
2023/05/03 02:41:01;;;;;;;1.02;0.98;;;;;;;27.08;38.68;100953.78;7397723;19;20038;-61
2023/05/03 02:43:27;;;;;;;2.05;1.00;;;;;;;29.97;35.62;100946.63;7397257;19;20373;-61
2023/05/03 02:45:53;;;;;;;2.17;1.17;;;;;;;31.39;32.96;100963.06;7397318;19;20463;-61
2023/05/03 02:48:19;;;;;;;10.60;1.25;;;;;;;31.58;32.26;100959.56;7397245;19;20047;-61
2023/05/03 02:50:46;;;;;;;2.58;1.60;;;;;;;31.67;32.00;100961.75;7396721;19;20006;-61
2023/05/03 02:53:12;;;;;;;1.55;0.95;;;;;;;31.58;31.63;100965.31;7396768;19;20494;-61
2023/05/03 02:55:39;;;;;;;1.20;0.98;;;;;;;31.80;31.29;100969.25;7399711;19;20018;-61
2023/05/03 02:58:05;;;;;;;5.53;1.45;;;;;;;31.85;30.95;100960.34;7396349;19;20096;-61
2023/05/03 03:00:31;;;;;;;2.55;0.85;;;;;;;31.88;30.87;100962.00;7402541;19;20015;-61
2023/05/03 03:02:58;;;;;;;1.15;0.82;;;;;;;18.67;45.29;100979.97;7396048;19;20357;-61
2023/05/03 03:05:24;;;;;;;2.70;2.05;;;;;;;15.63;100.00;100979.84;7396726;19;20466;-61
2023/05/03 03:07:51;;;;;;;1.00;0.45;;;;;;;29.45;38.90;100953.47;7396003;19;20007;-61
2023/05/03 03:10:17;;;;;;;1.65;1.35;;;;;;;30.42;34.72;100957.03;7400446;19;20010;-61
2023/05/03 03:12:43;;;;;;;3.72;1.30;;;;;;;30.70;33.77;100952.94;7398037;19;20046;-62
2023/05/03 03:15:16;;;;;;;1.45;1.10;;;;;;;30.98;32.83;100954.56;7395164;19;20458;-61
2023/05/03 03:17:42;;;;;;;0.55;0.55;;;;;;;30.91;32.38;100956.16;7395290;19;20043;-61
2023/05/03 03:20:10;;;;;;;1.00;0.70;;;;;;;31.15;31.83;100958.19;7399621;19;20017;-61
2023/05/03 03:22:38;;;;;;;2.35;1.10;;;;;;;31.57;31.12;100958.06;7395956;19;20542;-61
2023/05/03 03:25:05;;;;;;;1.13;0.98;;;;;;;31.72;30.47;100951.31;7398992;19;20010;-61
2023/05/03 03:27:32;;;;;;;1.88;0.45;;;;;;;31.41;30.47;100950.97;7395916;19;20011;-63
2023/05/03 03:29:58;;;;;;;0.75;0.65;;;;;;;31.35;30.13;100959.84;7399152;19;20018;-61
2023/05/03 03:32:25;;;;;;;1.25;1.15;;;;;;;31.49;30.26;100953.75;7395613;19;20467;-61
2023/05/03 03:34:52;;;;;;;2.55;0.88;;;;;;;31.48;29.62;100944.34;7394650;19;20074;-61
2023/05/03 03:37:20;;;;;;;2.58;1.02;;;;;;;29.16;31.09;100955.13;7395823;19;20127;-61
2023/05/03 03:39:47;;;;;;;1.15;0.38;;;;;;;30.74;30.29;100950.38;7398518;19;20019;-61
2023/05/03 03:42:14;;;;;;;2.50;1.45;;;;;;;31.09;29.64;100940.44;7395618;19;20010;-61
2023/05/03 03:44:41;;;;;;;1.52;0.50;;;;;;;31.03;29.67;100942.81;7395426;19;20021;-61
2023/05/03 03:47:08;;;;;;;0.75;0.75;;;;;;;31.01;29.65;100928.25;7394540;19;20347;-61
2023/05/03 03:49:35;;;;;;;1.67;0.80;;;;;;;30.95;29.46;100932.75;7397703;19;20014;-61
2023/05/03 03:52:01;;;;;;;9.43;1.60;;;;;;;30.79;29.33;100932.13;7395559;19;20048;-61
2023/05/03 03:54:27;;;;;;;3.40;0.98;;;;;;;30.87;29.05;100927.06;7397419;19;20015;-61
2023/05/03 03:56:54;;;;;;;1.75;0.47;;;;;;;30.81;28.90;100917.91;7392737;19;20030;-61
2023/05/03 03:59:20;;;;;;;3.40;0.80;;;;;;;30.78;28.71;100921.19;7396874;19;20017;-61
2023/05/03 04:01:46;;;;;;;1.23;1.10;;;;;;;30.49;28.71;100920.94;7395189;19;20018;-60
2023/05/03 04:04:12;;;;;;;1.80;0.82;;;;;;;30.50;28.81;100916.69;7394887;19;20031;-61
2023/05/03 04:06:39;;;;;;;1.08;0.90;;;;;;;30.44;29.00;100924.81;7395453;19;20022;-60
2023/05/03 04:09:09;;;;;;;7.43;1.30;;;;;;;30.16;29.20;100925.25;7397996;19;20029;-61
2023/05/03 04:11:36;;;;;;;1.65;1.05;;;;;;;30.58;28.57;100923.16;7394626;19;20463;-60
2023/05/03 04:14:04;;;;;;;2.55;1.60;;;;;;;30.74;28.43;100927.38;7394677;19;20159;-61
2023/05/03 04:16:31;;;;;;;4.95;0.95;;;;;;;30.63;28.47;100925.75;7392808;19;20018;-61
2023/05/03 04:19:00;;;;;;;0.80;0.68;;;;;;;30.82;28.47;100925.16;7396133;19;20006;-61
2023/05/03 04:21:27;;;;;;;1.10;1.00;;;;;;;30.34;28.72;100921.09;7392652;19;20095;-61
2023/05/03 04:23:54;;;;;;;0.77;0.77;;;;;;;30.31;28.57;100922.25;7395024;19;20014;-60
2023/05/03 04:26:23;;;;;;;3.13;1.52;;;;;;;30.29;28.45;100919.19;7391343;19;20031;-61
2023/05/03 04:28:50;;;;;;;3.10;0.90;;;;;;;30.48;28.30;100925.16;7390435;19;20359;-61
2023/05/03 04:31:20;;;;;;;3.83;1.38;;;;;;;30.59;27.93;100918.91;7389166;19;20015;-61
2023/05/03 04:33:50;;;;;;;0.75;0.43;;;;;;;30.85;28.01;100917.47;7389104;19;20347;-61
2023/05/03 04:36:17;;;;;;;5.15;1.42;;;;;;;30.64;28.04;100918.69;7388858;19;20016;-61
2023/05/03 04:38:46;;;;;;;2.42;1.25;;;;;;;30.51;28.23;100923.97;7390746;19;20066;-61
2023/05/03 04:41:12;;;;;;;1.92;1.48;;;;;;;30.62;28.07;100923.50;7392195;19;20033;-61
2023/05/03 04:43:39;;;;;;;1.90;1.80;;;;;;;30.67;27.96;100920.34;7393871;19;20011;-61
2023/05/03 04:46:06;;;;;;;18.05;1.65;;;;;;;30.85;27.79;100923.22;7393270;19;20793;-62
2023/05/03 04:48:35;;;;;;;4.18;0.93;;;;;;;30.79;27.62;100929.25;7393760;19;20006;-61
2023/05/03 04:51:02;;;;;;;3.80;1.77;;;;;;;30.76;27.90;100927.53;7393033;19;20043;-61
2023/05/03 04:53:29;;;;;;;0.80;0.55;;;;;;;30.84;27.97;100921.72;7392683;19;20015;-61
2023/05/03 04:56:06;;;;;;;1.70;1.48;;;;;;;30.80;27.57;100922.13;7391976;19;20015;-61
2023/05/03 04:58:35;;;;;;;0.77;0.77;;;;;;;30.75;27.42;100926.03;7393401;19;20033;-61
2023/05/03 05:01:02;;;;;;;1.52;0.90;;;;;;;30.67;27.53;100925.34;7394798;19;20003;-61
2023/05/03 05:03:30;;;;;;;1.00;1.00;;;;;;;30.66;27.71;100930.34;7393427;19;20079;-61
2023/05/03 05:05:57;;;;;;;0.75;0.75;;;;;;;30.78;27.80;100927.72;7392664;19;20010;-61
2023/05/03 05:08:24;;;;;;;0.50;0.50;;;;;;;30.58;27.55;100931.78;7392253;19;20018;-61
2023/05/03 05:10:54;;;;;;;0.77;0.70;;;;;;;30.19;27.85;100938.44;7391905;19;20018;-61
2023/05/03 05:13:25;;;;;;;0.80;0.80;;;;;;;30.12;28.36;100945.00;7392224;19;20083;-61
2023/05/03 05:15:51;;;;;;;2.70;0.95;;;;;;;30.14;28.60;100933.69;7391368;19;20022;-61
2023/05/03 05:18:17;;;;;;;1.38;1.25;;;;;;;30.41;28.34;100940.34;7392083;19;20010;-61
2023/05/03 05:20:44;;;;;;;1.08;0.70;;;;;;;30.63;28.06;100948.00;7397004;19;20357;-61
2023/05/03 05:23:11;;;;;;;1.77;1.17;;;;;;;30.37;28.48;100954.38;7392036;19;20019;-60
2023/05/03 05:25:41;;;;;;;2.05;1.00;;;;;;;30.61;28.30;100960.09;7396842;19;20010;-60
2023/05/03 05:28:09;;;;;;;0.85;0.55;;;;;;;30.79;27.95;100958.00;7392122;19;20454;-61
2023/05/03 05:30:36;;;;;;;0.68;0.68;;;;;;;31.00;28.09;100957.59;7396775;19;20021;-61
2023/05/03 05:33:02;;;;;;;9.50;1.40;;;;;;;31.28;28.08;100971.47;7400196;19;20019;-61
2023/05/03 05:35:28;;;;;;;0.47;0.47;;;;;;;31.76;27.61;100957.38;7397966;19;20013;-61
2023/05/03 05:37:55;;;;;;;0.50;0.45;;;;;;;31.76;27.63;100971.78;7399641;19;20002;-62
2023/05/03 05:40:21;;;;;;;1.40;0.77;;;;;;;31.41;27.38;100965.38;7402972;19;20010;-62
2023/05/03 05:42:52;;;;;;;0.75;0.75;;;;;;;31.33;28.06;100961.81;7399426;19;20017;-60
2023/05/03 05:45:20;;;;;;;0.57;0.52;;;;;;;31.48;27.63;100960.88;7399196;19;20470;-60
2023/05/03 05:47:47;;;;;;;1.98;0.80;;;;;;;31.59;27.85;100960.34;7398890;19;20019;-61
2023/05/03 05:50:14;;;;;;;1.50;0.77;;;;;;;31.77;27.23;100970.44;7404059;19;20018;-60
2023/05/03 05:52:40;;;;;;;0.85;0.60;;;;;;;31.51;27.69;100965.44;7398797;19;20014;-60
2023/05/03 05:55:07;;;;;;;0.82;0.82;;;;;;;31.64;27.62;100965.06;7402321;19;20084;-61
2023/05/03 05:57:34;;;;;;;0.32;0.20;;;;;;;31.41;27.67;100965.38;7398576;19;20033;-60
2023/05/03 06:00:00;;;;;;;1.08;0.75;;;;;;;31.54;27.77;100970.75;7401924;19;20074;-61
2023/05/03 06:02:27;;;;;;;0.63;0.63;;;;;;;31.65;27.48;100975.22;7398739;19;20011;-62
2023/05/03 06:04:54;;;;;;;1.38;0.98;;;;;;;31.60;27.68;100970.50;7398877;19;20015;-62
2023/05/03 06:07:20;;;;;;;13.13;1.92;;;;;;;31.55;27.64;100969.41;7397221;19;20014;-62
2023/05/03 06:09:46;;;;;;;0.68;0.57;;;;;;;31.82;27.54;100961.53;7399811;19;20010;-62
2023/05/03 06:12:13;;;;;;;7.22;1.67;;;;;;;31.58;27.77;100959.56;7398252;19;20046;-62
2023/05/03 06:14:42;;;;;;;1.52;0.77;;;;;;;31.49;28.11;100962.41;7399077;19;20010;-62
2023/05/03 06:17:08;;;;;;;1.95;0.73;;;;;;;31.42;28.12;100967.66;7398262;19;20021;-62
2023/05/03 06:19:34;;;;;;;2.30;1.15;;;;;;;31.53;28.63;100969.25;7401396;19;20098;-62
2023/05/03 06:22:01;;;;;;;0.73;0.50;;;;;;;31.41;28.14;100969.00;7400043;19;20046;-62
2023/05/03 06:24:31;;;;;;;2.15;0.80;;;;;;;31.54;28.65;100964.22;7399958;19;20316;-62
2023/05/03 06:26:59;;;;;;;5.68;1.27;;;;;;;31.58;28.74;100964.59;7397190;19;20343;-62
2023/05/03 06:29:26;;;;;;;1.33;0.70;;;;;;;31.64;28.31;100967.94;7398327;19;20010;-62
2023/05/03 06:31:52;;;;;;;0.60;0.60;;;;;;;31.97;27.92;100963.44;7397609;19;20027;-62
2023/05/03 06:34:20;;;;;;;7.32;0.80;;;;;;;31.92;27.90;100961.56;7397492;19;20485;-62
2023/05/03 06:36:49;;;;;;;1.38;0.50;;;;;;;31.88;27.75;100964.13;7396079;19;20024;-62
2023/05/03 06:39:15;;;;;;;0.57;0.57;;;;;;;31.84;27.59;100966.66;7398777;19;20015;-63
2023/05/03 06:41:41;;;;;;;1.95;0.45;;;;;;;31.94;27.55;100965.41;7397289;19;20045;-63
2023/05/03 06:44:08;;;;;;;0.73;0.70;;;;;;;31.98;27.82;100962.09;7395749;19;20451;-62
2023/05/03 06:46:34;;;;;;;1.85;0.85;;;;;;;32.12;27.61;100961.06;7401500;19;20016;-62
2023/05/03 06:49:00;;;;;;;1.58;0.20;;;;;;;32.13;27.92;100964.72;7399382;19;20039;-62
2023/05/03 06:51:31;;;;;;;1.13;1.02;;;;;;;32.34;27.49;100959.16;7397211;19;20470;-62
2023/05/03 06:54:05;;;;;;;;;;;;;;;32.18;27.83;100955.03;7398503;19;20757;-62
2023/05/03 06:56:32;;;;;;;5.50;1.35;;;;;;;31.98;27.47;100962.09;7396018;19;19919;-62
2023/05/03 06:59:00;;;;;;;1.00;0.60;;;;;;;32.03;27.65;100955.28;7398922;19;20014;-63
2023/05/03 07:01:26;;;;;;;1.73;0.38;;;;;;;32.16;27.20;100957.75;7397566;19;20084;-62
2023/05/03 07:03:52;;;;;;;2.22;1.17;;;;;;;32.31;27.40;100956.75;7395936;19;20018;-62
2023/05/03 07:06:19;;;;;;;5.00;1.17;;;;;;;32.75;26.76;100952.28;7397304;19;20361;-63
2023/05/03 07:08:45;;;;;;;8.88;0.70;;;;;;;33.00;26.99;100959.94;7396180;19;20052;-62
2023/05/03 07:11:11;;;;;;;1.60;0.93;;;;;;;33.35;26.55;100956.09;7399741;19;20355;-62
2023/05/03 07:13:37;;;;;;;1.00;0.65;;;;;;;33.23;26.72;100952.31;7399075;19;20015;-62
2023/05/03 07:16:04;;;;;;;1.90;0.88;;;;;;;33.34;26.37;100953.81;7394301;19;20007;-62
2023/05/03 07:18:30;;;;;;;0.55;0.55;;;;;;;33.33;26.44;100949.44;7397326;19;20017;-62
2023/05/03 07:20:56;;;;;;;1.85;0.40;;;;;;;33.75;26.19;100954.66;7402829;19;20015;-62
2023/05/03 07:23:22;;;;;;;0.43;0.43;;;;;;;33.95;26.06;100950.31;7395906;19;20010;-62
2023/05/03 07:25:48;;;;;;;1.27;1.17;;;;;;;34.16;25.75;100951.16;7397722;19;20032;-62
2023/05/03 07:28:15;;;;;;;0.80;0.60;;;;;;;34.13;25.95;100952.38;7395935;19;20018;-62
2023/05/03 07:30:41;;;;;;;1.33;0.40;;;;;;;34.23;25.63;100949.47;7400425;19;20047;-62
2023/05/03 07:33:07;;;;;;;11.95;0.95;;;;;;;33.71;26.07;100957.25;7396128;19;20010;-62
2023/05/03 07:35:34;;;;;;;0.82;0.50;;;;;;;33.97;26.10;100956.25;7396326;19;20011;-63
2023/05/03 07:38:00;;;;;;;0.75;0.50;;;;;;;34.10;25.86;100953.63;7397268;19;20011;-62
2023/05/03 07:40:27;;;;;;;0.40;0.40;;;;;;;34.48;25.66;100951.91;7396613;19;20018;-62
2023/05/03 07:42:53;;;;;;;1.00;0.68;;;;;;;34.48;25.30;100941.06;7399731;19;20010;-63
2023/05/03 07:45:19;;;;;;;0.77;0.20;;;;;;;34.28;25.40;100945.47;7398653;19;20006;-62
2023/05/03 07:47:46;;;;;;;0.30;0.30;;;;;;;34.20;25.13;100944.91;7398872;19;20552;-62
2023/05/03 07:50:12;;;;;;;0.50;0.50;;;;;;;33.91;25.87;100936.34;7401145;19;20329;-62
2023/05/03 07:52:39;;;;;;;0.90;0.50;;;;;;;34.07;26.04;100936.75;7398244;19;20023;-62
2023/05/03 07:55:06;;;;;;;0.45;0.45;;;;;;;34.32;25.41;100932.06;7395535;19;20011;-62
2023/05/03 07:57:32;;;;;;;1.15;0.30;;;;;;;34.14;25.90;100936.56;7398759;19;20006;-62
2023/05/03 07:59:58;;;;;;;2.45;0.70;;;;;;;34.40;25.44;100926.06;7400152;19;20014;-62
2023/05/03 08:02:25;;;;;;;1.65;0.65;;;;;;;34.43;25.41;100924.06;7399559;19;20014;-62
2023/05/03 08:04:51;;;;;;;1.63;0.75;;;;;;;34.42;25.75;100931.22;7396181;19;20014;-62
2023/05/03 08:07:17;;;;;;;0.52;0.30;;;;;;;34.50;25.70;100932.56;7400128;19;20032;-62
2023/05/03 08:09:43;;;;;;;0.98;0.22;;;;;;;34.75;25.77;100921.28;7395369;19;20058;-62
2023/05/03 08:12:09;;;;;;;2.83;1.00;;;;;;;34.72;25.35;100916.72;7396458;19;20011;-63
2023/05/03 08:14:36;;;;;;;0.30;0.10;;;;;;;34.86;25.34;100916.91;7394413;19;20095;-62
2023/05/03 08:17:03;;;;;;;0.82;0.55;;;;;;;35.05;25.10;100916.78;7397951;19;20015;-62
2023/05/03 08:19:29;;;;;;;2.17;0.80;;;;;;;35.17;24.94;100917.59;7396493;19;20031;-63
2023/05/03 08:21:57;;;;;;;0.17;0.10;;;;;;;35.44;24.76;100900.50;7395574;19;20011;-62
2023/05/03 08:24:23;;;;;;;0.60;0.60;;;;;;;35.79;24.50;100912.19;7396222;19;20535;-62
2023/05/03 08:26:49;;;;;;;0.22;0.20;;;;;;;36.13;24.03;100904.88;7393546;19;20020;-63
2023/05/03 08:29:15;;;;;;;0.10;0.10;;;;;;;35.96;24.15;100917.63;7399211;19;20014;-62
2023/05/03 08:31:42;;;;;;;0.55;0.20;;;;;;;35.98;24.26;100908.28;7395254;19;20454;-62
2023/05/03 08:34:09;;;;;;;1.95;0.10;;;;;;;36.02;24.40;100911.47;7394313;19;20794;-63
2023/05/03 08:36:37;;;;;;;2.92;0.47;;;;;;;36.39;23.94;100910.16;7393698;19;20014;-62
2023/05/03 08:39:06;;;;;;;1.65;0.65;;;;;;;36.77;23.87;100908.06;7393164;19;20023;-62
2023/05/03 08:41:33;;;;;;;2.58;0.38;;;;;;;37.13;23.70;100901.47;7394879;19;20466;-62
2023/05/03 08:44:00;;;;;;;0.63;0.45;;;;;;;37.01;24.04;100907.34;7393885;19;20013;-63
2023/05/03 08:46:27;;;;;;;0.98;0.55;;;;;;;37.22;23.79;100912.94;7393333;19;20018;-61
2023/05/03 08:48:54;;;;;;;0.55;0.28;;;;;;;36.77;23.22;100908.81;7393888;19;20014;-61
2023/05/03 08:51:22;;;;;;;10.25;0.60;;;;;;;36.74;23.70;100915.88;7395983;19;20014;-61
2023/05/03 08:53:49;;;;;;;0.52;0.25;;;;;;;37.15;23.52;100908.16;7395446;19;20085;-61
2023/05/03 08:56:38;;;;;;;0.20;0.20;;;;;;;37.62;23.63;100902.81;7393861;19;20010;-62
2023/05/03 08:59:07;;;;;;;0.57;0.17;;;;;;;37.87;23.65;100907.84;7393163;19;20014;-62
2023/05/03 09:01:38;;;;;;;0.75;0.50;;;;;;;38.12;23.68;100913.56;7393771;19;20066;-61
2023/05/03 09:04:06;;;;;;;3.97;0.40;;;;;;;38.27;23.48;100910.03;7394869;19;20018;-61
2023/05/03 09:06:33;;;;;;;1.95;0.65;;;;;;;38.16;23.03;100913.81;7392045;19;20504;-61
2023/05/03 09:09:01;;;;;;;0.82;0.55;;;;;;;38.44;22.47;100915.31;7392617;19;20355;-61
2023/05/03 09:11:31;;;;;;;0.55;0.40;;;;;;;38.45;22.78;100911.00;7393149;19;20019;-62
2023/05/03 09:14:14;;;;;;;1.00;0.28;;;;;;;38.43;22.52;100907.22;7393211;19;20057;-61
2023/05/03 09:16:45;;;;;;;0.35;0.20;;;;;;;38.53;22.15;100904.84;7396010;19;20018;-62
2023/05/03 09:19:13;;;;;;;1.45;0.47;;;;;;;38.48;22.32;100909.72;7396063;19;20043;-62
2023/05/03 09:21:42;;;;;;;0.30;0.25;;;;;;;38.21;22.14;100900.97;7394876;19;20090;-63
2023/05/03 09:24:26;;;;;;;1.90;0.38;;;;;;;38.66;22.24;100901.16;7395584;19;20018;-62
2023/05/03 09:26:57;;;;;;;0.30;0.20;;;;;;;38.88;22.26;100898.63;7392014;19;20073;-61
2023/05/03 09:29:31;;;;;;;0.60;0.38;;;;;;;38.97;22.31;100895.47;7393540;19;20015;-62
2023/05/03 09:31:59;;;;;;;1.00;0.50;;;;;;;38.37;22.84;100898.94;7393392;19;20014;-62
2023/05/03 09:34:25;;;;;;;1.55;0.45;;;;;;;38.94;22.03;100893.09;7393398;19;20019;-61
2023/05/03 09:36:52;;;;;;;1.23;0.30;;;;;;;38.89;22.11;100897.22;7390015;19;20043;-62
2023/05/03 09:39:18;;;;;;;0.50;0.30;;;;;;;39.13;22.18;100892.63;7392802;19;20006;-62
2023/05/03 09:41:46;;;;;;;1.08;0.45;;;;;;;39.17;21.98;100889.91;7393329;19;20014;-61
2023/05/03 09:44:12;;;;;;;4.22;0.80;;;;;;;38.54;22.89;100889.63;7393482;19;20126;-62
2023/05/03 09:46:38;;;;;;;1.10;0.50;;;;;;;39.48;21.97;100895.78;7393475;19;20018;-61
2023/05/03 09:49:05;;;;;;;1.55;0.70;;;;;;;39.41;21.71;100885.25;7390972;19;20019;-62
2023/05/03 09:51:31;;;;;;;0.85;0.50;;;;;;;39.59;21.56;100882.47;7392975;19;20418;-62
2023/05/03 09:53:58;;;;;;;0.40;0.20;;;;;;;39.02;21.63;100884.75;7392327;19;20077;-62
2023/05/03 09:56:27;;;;;;;1.25;0.35;;;;;;;39.21;21.72;100878.44;7390048;19;20006;-62
2023/05/03 09:58:53;;;;;;;0.40;0.30;;;;;;;39.39;21.47;100888.06;7391123;19;20018;-62
2023/05/03 10:01:23;;;;;;;3.17;0.45;;;;;;;39.42;21.27;100886.00;7396359;19;20030;-62
2023/05/03 10:03:51;;;;;;;1.48;0.65;;;;;;;39.45;21.51;100879.59;7392879;19;20014;-62
2023/05/03 10:06:33;;;;;;;0.10;0.10;;;;;;;39.51;20.92;100888.63;7392074;19;20038;-62
2023/05/03 10:09:02;;;;;;;1.17;0.30;;;;;;;38.64;21.78;100893.06;7392480;19;20011;-61
2023/05/03 10:11:28;;;;;;;1.15;0.63;;;;;;;38.46;21.88;100895.06;7391247;19;20052;-61
2023/05/03 10:13:55;;;;;;;3.47;0.57;;;;;;;39.10;21.67;100885.91;7391212;19;20478;-61
2023/05/03 10:16:29;;;;;;;2.22;1.00;;;;;;;39.18;21.60;100885.59;7389535;19;20026;-61
2023/05/03 10:19:12;;;;;;;6.05;0.70;;;;;;;39.53;21.05;100885.06;7396074;19;20018;-61
2023/05/03 10:21:54;;;;;;;0.65;0.50;;;;;;;39.01;21.85;100889.81;7399633;19;20015;-61
2023/05/03 10:24:20;;;;;;;0.95;0.25;;;;;;;39.48;20.66;100884.13;7400612;19;20018;-61
2023/05/03 10:26:49;;;;;;;0.75;0.55;;;;;;;39.19;21.40;100887.06;7397449;19;20010;-62
2023/05/03 10:29:33;;;;;;;1.67;0.47;;;;;;;39.60;21.14;100881.78;7399359;19;20466;-61
2023/05/03 10:32:01;;;;;;;5.78;0.63;;;;;;;39.34;21.34;100875.44;7398433;19;20035;-61
2023/05/03 10:34:32;;;;;;;1.02;0.30;;;;;;;39.55;21.12;100871.31;7398990;19;20031;-62
2023/05/03 10:37:07;;;;;;;1.38;0.28;;;;;;;39.50;21.10;100869.63;7395970;19;20459;-62
2023/05/03 10:39:33;;;;;;;0.68;0.50;;;;;;;39.66;20.72;100876.22;7396061;19;20011;-62
2023/05/03 10:42:08;;;;;;;0.50;0.30;;;;;;;39.62;20.71;100867.31;7399255;19;20007;-62
2023/05/03 10:44:38;;;;;;;0.25;0.20;;;;;;;39.65;20.92;100873.97;7397932;19;20014;-62
2023/05/03 10:47:22;;;;;;;;;;;;;;;39.83;20.95;100860.97;7397869;19;20074;-62
2023/05/03 10:50:13;;;;;;;0.35;0.15;;;;;;;40.11;20.17;100868.09;7397462;19;19922;-62
2023/05/03 10:52:39;;;;;;;;;;;;;;;40.24;20.17;100859.91;7399210;19;20010;-62
2023/05/03 10:55:09;;;;;;;0.63;0.10;;;;;;;39.17;20.74;100855.69;7402494;19;19911;-62
2023/05/03 10:57:37;;;;;;;0.20;0.13;;;;;;;39.51;20.16;100853.63;7397435;19;20070;-61
2023/05/03 11:00:17;;;;;;;0.25;0.10;;;;;;;39.03;20.52;100849.13;7395523;19;20010;-62
2023/05/03 11:03:13;;;;;;;0.52;0.17;;;;;;;38.82;20.76;100855.38;7397873;19;20013;-61
2023/05/03 11:05:41;;;;;;;2.08;0.63;;;;;;;38.85;20.20;100841.66;7399370;19;20042;-61
2023/05/03 11:08:12;;;;;;;1.70;0.47;;;;;;;39.51;20.00;100836.13;7398465;19;20032;-63
2023/05/03 11:10:39;;;;;;;0.32;0.22;;;;;;;38.97;20.32;100836.41;7398481;19;20018;-62
2023/05/03 11:13:05;;;;;;;0.82;0.35;;;;;;;39.05;20.75;100843.41;7397706;19;20066;-62
2023/05/03 11:15:32;;;;;;;0.80;0.60;;;;;;;39.12;20.53;100830.66;7397466;19;20011;-61
2023/05/03 11:17:59;;;;;;;0.85;0.30;;;;;;;39.33;20.37;100832.38;7400865;19;20010;-61
2023/05/03 11:20:25;;;;;;;0.22;0.20;;;;;;;39.40;20.09;100813.75;7401564;19;20414;-62
2023/05/03 11:22:51;;;;;;;1.70;0.40;;;;;;;39.35;20.40;100823.72;7397807;19;20034;-63
2023/05/03 11:25:18;;;;;;;0.10;0.10;;;;;;;39.30;19.83;100822.03;7399813;19;20014;-61
2023/05/03 11:27:46;;;;;;;1.30;0.63;;;;;;;39.06;19.64;100812.84;7396008;19;20360;-61
2023/05/03 11:30:12;;;;;;;5.32;0.60;;;;;;;39.12;20.40;100818.22;7399158;19;20010;-63